sensor_id;sensor_type;location;lat;lon;timestamp;P1;durP1;ratioP1;P2;durP2;ratioP2
34405;SDS011;20658;45.630;8.886;2022-10-31T00:01:49;20.40;;;7.03;;
34405;SDS011;20658;45.630;8.886;2022-10-31T00:04:22;26.02;;;6.65;;
34405;SDS011;20658;45.630;8.886;2022-10-31T00:06:51;20.67;;;5.63;;
34405;SDS011;20658;45.630;8.886;2022-10-31T00:09:24;17.08;;;6.28;;
34405;SDS011;20658;45.630;8.886;2022-10-31T00:11:57;21.83;;;6.93;;
34405;SDS011;20658;45.630;8.886;2022-10-31T00:14:32;24.98;;;6.57;;
34405;SDS011;20658;45.630;8.886;2022-10-31T00:17:06;19.45;;;7.10;;
34405;SDS011;20658;45.630;8.886;2022-10-31T00:19:34;26.77;;;7.47;;
34405;SDS011;20658;45.630;8.886;2022-10-31T00:22:07;22.40;;;8.30;;
34405;SDS011;20658;45.630;8.886;2022-10-31T00:24:40;25.30;;;7.97;;
34405;SDS011;20658;45.630;8.886;2022-10-31T00:27:14;26.88;;;8.40;;
34405;SDS011;20658;45.630;8.886;2022-10-31T00:29:49;26.17;;;7.90;;
34405;SDS011;20658;45.630;8.886;2022-10-31T00:32:22;26.77;;;7.82;;
34405;SDS011;20658;45.630;8.886;2022-10-31T00:34:55;23.10;;;6.53;;
34405;SDS011;20658;45.630;8.886;2022-10-31T00:37:29;22.48;;;6.75;;
34405;SDS011;20658;45.630;8.886;2022-10-31T00:40:02;21.15;;;7.53;;
34405;SDS011;20658;45.630;8.886;2022-10-31T00:42:38;20.80;;;6.80;;
34405;SDS011;20658;45.630;8.886;2022-10-31T00:45:09;21.90;;;7.05;;
34405;SDS011;20658;45.630;8.886;2022-10-31T00:47:43;14.68;;;6.53;;
34405;SDS011;20658;45.630;8.886;2022-10-31T00:50:17;22.35;;;7.88;;
34405;SDS011;20658;45.630;8.886;2022-10-31T00:52:50;25.17;;;7.70;;
34405;SDS011;20658;45.630;8.886;2022-10-31T00:55:24;19.08;;;7.22;;
34405;SDS011;20658;45.630;8.886;2022-10-31T00:57:57;23.25;;;6.28;;
34405;SDS011;20658;45.630;8.886;2022-10-31T01:00:32;21.58;;;7.05;;
34405;SDS011;20658;45.630;8.886;2022-10-31T01:03:06;23.25;;;6.70;;
34405;SDS011;20658;45.630;8.886;2022-10-31T01:05:40;22.73;;;6.13;;
34405;SDS011;20658;45.630;8.886;2022-10-31T01:08:14;25.00;;;5.95;;
34405;SDS011;20658;45.630;8.886;2022-10-31T01:10:42;21.13;;;7.00;;
34405;SDS011;20658;45.630;8.886;2022-10-31T01:13:10;17.15;;;5.80;;
34405;SDS011;20658;45.630;8.886;2022-10-31T01:15:40;20.27;;;7.03;;
34405;SDS011;20658;45.630;8.886;2022-10-31T01:18:13;22.60;;;6.70;;
34405;SDS011;20658;45.630;8.886;2022-10-31T01:20:56;21.52;;;6.22;;
34405;SDS011;20658;45.630;8.886;2022-10-31T01:23:31;22.98;;;5.72;;
34405;SDS011;20658;45.630;8.886;2022-10-31T01:26:06;26.23;;;6.57;;
34405;SDS011;20658;45.630;8.886;2022-10-31T01:28:44;24.63;;;6.75;;
34405;SDS011;20658;45.630;8.886;2022-10-31T01:31:16;23.98;;;6.05;;
34405;SDS011;20658;45.630;8.886;2022-10-31T01:33:47;30.50;;;6.43;;
34405;SDS011;20658;45.630;8.886;2022-10-31T01:36:21;16.70;;;5.30;;
34405;SDS011;20658;45.630;8.886;2022-10-31T01:39:08;17.35;;;5.68;;
34405;SDS011;20658;45.630;8.886;2022-10-31T01:41:44;18.90;;;6.25;;
34405;SDS011;20658;45.630;8.886;2022-10-31T01:47:32;24.55;;;5.90;;
34405;SDS011;20658;45.630;8.886;2022-10-31T01:50:14;16.50;;;5.43;;
34405;SDS011;20658;45.630;8.886;2022-10-31T01:55:28;22.23;;;5.50;;
34405;SDS011;20658;45.630;8.886;2022-10-31T01:58:06;22.15;;;5.68;;
34405;SDS011;20658;45.630;8.886;2022-10-31T02:00:45;23.33;;;6.43;;
34405;SDS011;20658;45.630;8.886;2022-10-31T02:03:25;15.38;;;5.30;;
34405;SDS011;20658;45.630;8.886;2022-10-31T02:06:00;18.98;;;5.78;;
34405;SDS011;20658;45.630;8.886;2022-10-31T02:08:33;17.20;;;5.95;;
34405;SDS011;20658;45.630;8.886;2022-10-31T02:11:10;16.92;;;5.38;;
34405;SDS011;20658;45.630;8.886;2022-10-31T02:13:43;21.73;;;6.10;;
34405;SDS011;20658;45.630;8.886;2022-10-31T02:16:17;21.23;;;5.32;;
34405;SDS011;20658;45.630;8.886;2022-10-31T02:18:53;21.75;;;5.90;;
34405;SDS011;20658;45.630;8.886;2022-10-31T02:21:28;22.10;;;6.25;;
34405;SDS011;20658;45.630;8.886;2022-10-31T02:24:18;26.40;;;6.35;;
34405;SDS011;20658;45.630;8.886;2022-10-31T02:27:21;17.45;;;5.60;;
34405;SDS011;20658;45.630;8.886;2022-10-31T02:30:18;20.23;;;5.32;;
34405;SDS011;20658;45.630;8.886;2022-10-31T02:33:02;19.63;;;5.05;;
34405;SDS011;20658;45.630;8.886;2022-10-31T02:35:54;17.00;;;5.45;;
34405;SDS011;20658;45.630;8.886;2022-10-31T02:38:40;22.88;;;6.15;;
34405;SDS011;20658;45.630;8.886;2022-10-31T02:41:32;29.00;;;5.72;;
34405;SDS011;20658;45.630;8.886;2022-10-31T02:44:16;20.70;;;5.45;;
34405;SDS011;20658;45.630;8.886;2022-10-31T02:46:56;18.20;;;5.72;;
34405;SDS011;20658;45.630;8.886;2022-10-31T02:49:35;26.08;;;6.57;;
34405;SDS011;20658;45.630;8.886;2022-10-31T02:52:19;21.58;;;6.03;;
34405;SDS011;20658;45.630;8.886;2022-10-31T02:55:08;16.10;;;5.68;;
34405;SDS011;20658;45.630;8.886;2022-10-31T02:57:47;17.95;;;6.30;;
34405;SDS011;20658;45.630;8.886;2022-10-31T03:00:21;16.48;;;5.28;;
34405;SDS011;20658;45.630;8.886;2022-10-31T03:02:56;19.00;;;5.10;;
34405;SDS011;20658;45.630;8.886;2022-10-31T03:05:46;20.20;;;5.80;;
34405;SDS011;20658;45.630;8.886;2022-10-31T03:08:29;15.27;;;5.07;;
34405;SDS011;20658;45.630;8.886;2022-10-31T03:11:08;23.00;;;5.35;;
34405;SDS011;20658;45.630;8.886;2022-10-31T03:13:44;19.80;;;6.53;;
34405;SDS011;20658;45.630;8.886;2022-10-31T03:16:17;14.93;;;4.97;;
34405;SDS011;20658;45.630;8.886;2022-10-31T03:18:57;23.50;;;5.88;;
34405;SDS011;20658;45.630;8.886;2022-10-31T03:21:38;12.85;;;4.25;;
34405;SDS011;20658;45.630;8.886;2022-10-31T03:24:20;19.08;;;5.13;;
34405;SDS011;20658;45.630;8.886;2022-10-31T03:26:58;19.05;;;4.70;;
34405;SDS011;20658;45.630;8.886;2022-10-31T03:29:34;24.48;;;5.00;;
34405;SDS011;20658;45.630;8.886;2022-10-31T03:32:11;24.75;;;5.97;;
34405;SDS011;20658;45.630;8.886;2022-10-31T03:34:50;24.20;;;5.75;;
34405;SDS011;20658;45.630;8.886;2022-10-31T03:37:27;21.40;;;5.25;;
34405;SDS011;20658;45.630;8.886;2022-10-31T03:40:10;19.77;;;5.45;;
34405;SDS011;20658;45.630;8.886;2022-10-31T03:42:49;16.83;;;4.57;;
34405;SDS011;20658;45.630;8.886;2022-10-31T03:45:27;11.73;;;3.88;;
34405;SDS011;20658;45.630;8.886;2022-10-31T03:48:03;17.67;;;5.38;;
34405;SDS011;20658;45.630;8.886;2022-10-31T03:50:38;24.25;;;4.80;;
34405;SDS011;20658;45.630;8.886;2022-10-31T03:53:19;16.42;;;4.68;;
34405;SDS011;20658;45.630;8.886;2022-10-31T03:55:59;20.95;;;4.00;;
34405;SDS011;20658;45.630;8.886;2022-10-31T03:58:38;19.50;;;5.32;;
34405;SDS011;20658;45.630;8.886;2022-10-31T04:01:17;18.92;;;4.43;;
34405;SDS011;20658;45.630;8.886;2022-10-31T04:03:54;21.67;;;4.43;;
34405;SDS011;20658;45.630;8.886;2022-10-31T04:06:29;26.60;;;5.15;;
34405;SDS011;20658;45.630;8.886;2022-10-31T04:09:07;15.68;;;4.65;;
34405;SDS011;20658;45.630;8.886;2022-10-31T04:11:44;17.23;;;4.30;;
34405;SDS011;20658;45.630;8.886;2022-10-31T04:14:42;16.42;;;4.93;;
34405;SDS011;20658;45.630;8.886;2022-10-31T04:17:22;19.65;;;4.75;;
34405;SDS011;20658;45.630;8.886;2022-10-31T04:19:58;19.70;;;5.78;;
34405;SDS011;20658;45.630;8.886;2022-10-31T04:22:33;18.90;;;5.15;;
34405;SDS011;20658;45.630;8.886;2022-10-31T04:25:08;16.02;;;3.88;;
34405;SDS011;20658;45.630;8.886;2022-10-31T04:27:41;22.15;;;5.03;;
34405;SDS011;20658;45.630;8.886;2022-10-31T04:30:15;15.90;;;3.92;;
34405;SDS011;20658;45.630;8.886;2022-10-31T04:32:48;19.13;;;4.80;;
34405;SDS011;20658;45.630;8.886;2022-10-31T04:35:22;15.90;;;4.50;;
34405;SDS011;20658;45.630;8.886;2022-10-31T04:37:51;18.73;;;4.80;;
34405;SDS011;20658;45.630;8.886;2022-10-31T04:40:26;17.75;;;4.72;;
34405;SDS011;20658;45.630;8.886;2022-10-31T04:43:38;15.43;;;4.65;;
34405;SDS011;20658;45.630;8.886;2022-10-31T04:46:12;15.43;;;4.60;;
34405;SDS011;20658;45.630;8.886;2022-10-31T04:48:41;16.40;;;5.22;;
34405;SDS011;20658;45.630;8.886;2022-10-31T04:51:15;21.67;;;4.28;;
34405;SDS011;20658;45.630;8.886;2022-10-31T04:53:49;18.38;;;4.75;;
34405;SDS011;20658;45.630;8.886;2022-10-31T04:56:24;18.48;;;4.97;;
34405;SDS011;20658;45.630;8.886;2022-10-31T04:59:03;17.77;;;4.43;;
34405;SDS011;20658;45.630;8.886;2022-10-31T05:04:32;18.63;;;5.93;;
34405;SDS011;20658;45.630;8.886;2022-10-31T05:07:06;20.73;;;5.18;;
34405;SDS011;20658;45.630;8.886;2022-10-31T05:09:39;15.50;;;4.20;;
34405;SDS011;20658;45.630;8.886;2022-10-31T05:12:14;12.77;;;3.58;;
34405;SDS011;20658;45.630;8.886;2022-10-31T05:15:07;16.38;;;4.63;;
34405;SDS011;20658;45.630;8.886;2022-10-31T05:20:46;22.60;;;4.78;;
34405;SDS011;20658;45.630;8.886;2022-10-31T05:23:27;17.15;;;4.55;;
34405;SDS011;20658;45.630;8.886;2022-10-31T05:26:00;20.27;;;4.72;;
34405;SDS011;20658;45.630;8.886;2022-10-31T05:28:35;20.27;;;5.03;;
34405;SDS011;20658;45.630;8.886;2022-10-31T05:31:08;22.20;;;5.15;;
34405;SDS011;20658;45.630;8.886;2022-10-31T05:33:41;21.33;;;4.55;;
34405;SDS011;20658;45.630;8.886;2022-10-31T05:36:41;14.52;;;4.00;;
34405;SDS011;20658;45.630;8.886;2022-10-31T05:39:16;19.45;;;4.65;;
34405;SDS011;20658;45.630;8.886;2022-10-31T05:41:54;15.38;;;4.30;;
34405;SDS011;20658;45.630;8.886;2022-10-31T05:44:30;17.63;;;5.15;;
34405;SDS011;20658;45.630;8.886;2022-10-31T05:47:29;17.92;;;5.13;;
34405;SDS011;20658;45.630;8.886;2022-10-31T05:50:21;15.63;;;4.65;;
34405;SDS011;20658;45.630;8.886;2022-10-31T05:53:04;17.52;;;4.15;;
34405;SDS011;20658;45.630;8.886;2022-10-31T05:55:39;18.70;;;4.13;;
34405;SDS011;20658;45.630;8.886;2022-10-31T06:00:54;19.75;;;4.55;;
34405;SDS011;20658;45.630;8.886;2022-10-31T06:03:27;16.67;;;4.50;;
34405;SDS011;20658;45.630;8.886;2022-10-31T06:06:03;21.83;;;5.13;;
34405;SDS011;20658;45.630;8.886;2022-10-31T06:08:39;20.02;;;4.82;;
34405;SDS011;20658;45.630;8.886;2022-10-31T06:11:13;15.43;;;4.25;;
34405;SDS011;20658;45.630;8.886;2022-10-31T06:14:02;18.08;;;4.60;;
34405;SDS011;20658;45.630;8.886;2022-10-31T06:16:45;28.63;;;4.88;;
34405;SDS011;20658;45.630;8.886;2022-10-31T06:19:37;16.80;;;4.50;;
34405;SDS011;20658;45.630;8.886;2022-10-31T06:22:14;18.63;;;4.47;;
34405;SDS011;20658;45.630;8.886;2022-10-31T06:24:47;18.33;;;4.53;;
34405;SDS011;20658;45.630;8.886;2022-10-31T06:27:31;13.73;;;4.03;;
34405;SDS011;20658;45.630;8.886;2022-10-31T06:30:10;12.63;;;3.33;;
34405;SDS011;20658;45.630;8.886;2022-10-31T06:32:46;21.95;;;4.40;;
34405;SDS011;20658;45.630;8.886;2022-10-31T06:35:15;16.13;;;4.07;;
34405;SDS011;20658;45.630;8.886;2022-10-31T06:37:51;16.45;;;4.45;;
34405;SDS011;20658;45.630;8.886;2022-10-31T06:40:35;19.42;;;5.65;;
34405;SDS011;20658;45.630;8.886;2022-10-31T06:43:18;18.17;;;4.65;;
34405;SDS011;20658;45.630;8.886;2022-10-31T06:46:10;23.38;;;5.47;;
34405;SDS011;20658;45.630;8.886;2022-10-31T06:49:00;22.17;;;4.40;;
34405;SDS011;20658;45.630;8.886;2022-10-31T06:51:53;28.30;;;5.32;;
34405;SDS011;20658;45.630;8.886;2022-10-31T06:54:27;14.30;;;4.28;;
34405;SDS011;20658;45.630;8.886;2022-10-31T06:57:02;15.20;;;4.35;;
34405;SDS011;20658;45.630;8.886;2022-10-31T06:59:37;13.98;;;3.80;;
34405;SDS011;20658;45.630;8.886;2022-10-31T07:02:20;17.23;;;4.50;;
34405;SDS011;20658;45.630;8.886;2022-10-31T07:04:56;19.90;;;4.40;;
34405;SDS011;20658;45.630;8.886;2022-10-31T07:07:29;14.75;;;4.22;;
34405;SDS011;20658;45.630;8.886;2022-10-31T07:10:03;21.65;;;4.85;;
34405;SDS011;20658;45.630;8.886;2022-10-31T07:12:51;17.98;;;4.70;;
34405;SDS011;20658;45.630;8.886;2022-10-31T07:15:30;20.65;;;3.85;;
34405;SDS011;20658;45.630;8.886;2022-10-31T07:18:07;18.08;;;4.10;;
34405;SDS011;20658;45.630;8.886;2022-10-31T07:20:44;20.27;;;4.60;;
34405;SDS011;20658;45.630;8.886;2022-10-31T07:23:17;21.58;;;4.82;;
34405;SDS011;20658;45.630;8.886;2022-10-31T07:26:10;17.38;;;4.25;;
34405;SDS011;20658;45.630;8.886;2022-10-31T07:28:46;17.98;;;3.88;;
34405;SDS011;20658;45.630;8.886;2022-10-31T07:31:22;13.77;;;4.03;;
34405;SDS011;20658;45.630;8.886;2022-10-31T07:34:01;32.17;;;5.47;;
34405;SDS011;20658;45.630;8.886;2022-10-31T07:36:55;18.98;;;4.25;;
34405;SDS011;20658;45.630;8.886;2022-10-31T07:39:29;15.77;;;4.32;;
34405;SDS011;20658;45.630;8.886;2022-10-31T07:42:03;15.73;;;4.68;;
34405;SDS011;20658;45.630;8.886;2022-10-31T07:44:41;23.52;;;4.88;;
34405;SDS011;20658;45.630;8.886;2022-10-31T07:47:38;17.50;;;5.15;;
34405;SDS011;20658;45.630;8.886;2022-10-31T07:50:30;19.02;;;3.97;;
34405;SDS011;20658;45.630;8.886;2022-10-31T07:53:39;14.60;;;5.10;;
34405;SDS011;20658;45.630;8.886;2022-10-31T07:56:22;19.67;;;4.95;;
34405;SDS011;20658;45.630;8.886;2022-10-31T07:58:51;19.67;;;4.30;;
34405;SDS011;20658;45.630;8.886;2022-10-31T08:01:25;15.43;;;4.70;;
34405;SDS011;20658;45.630;8.886;2022-10-31T08:04:17;20.67;;;4.95;;
34405;SDS011;20658;45.630;8.886;2022-10-31T08:07:09;18.77;;;5.45;;
34405;SDS011;20658;45.630;8.886;2022-10-31T08:09:51;23.13;;;5.38;;
34405;SDS011;20658;45.630;8.886;2022-10-31T08:12:28;19.73;;;5.05;;
34405;SDS011;20658;45.630;8.886;2022-10-31T08:15:06;18.30;;;4.18;;
34405;SDS011;20658;45.630;8.886;2022-10-31T08:17:41;21.58;;;5.00;;
34405;SDS011;20658;45.630;8.886;2022-10-31T08:20:14;23.63;;;4.70;;
34405;SDS011;20658;45.630;8.886;2022-10-31T08:22:54;14.43;;;4.03;;
34405;SDS011;20658;45.630;8.886;2022-10-31T08:25:33;12.55;;;4.57;;
34405;SDS011;20658;45.630;8.886;2022-10-31T08:28:08;24.40;;;4.85;;
34405;SDS011;20658;45.630;8.886;2022-10-31T08:30:45;11.38;;;4.20;;
34405;SDS011;20658;45.630;8.886;2022-10-31T08:33:37;20.13;;;4.88;;
34405;SDS011;20658;45.630;8.886;2022-10-31T08:36:29;25.25;;;5.63;;
34405;SDS011;20658;45.630;8.886;2022-10-31T08:39:17;20.58;;;5.03;;
34405;SDS011;20658;45.630;8.886;2022-10-31T08:41:51;21.48;;;5.10;;
34405;SDS011;20658;45.630;8.886;2022-10-31T08:44:25;16.75;;;4.75;;
34405;SDS011;20658;45.630;8.886;2022-10-31T08:46:58;17.15;;;5.13;;
34405;SDS011;20658;45.630;8.886;2022-10-31T08:49:33;16.05;;;4.78;;
34405;SDS011;20658;45.630;8.886;2022-10-31T08:52:06;24.60;;;5.35;;
34405;SDS011;20658;45.630;8.886;2022-10-31T08:54:38;23.27;;;6.18;;
34405;SDS011;20658;45.630;8.886;2022-10-31T08:57:32;18.52;;;5.50;;
34405;SDS011;20658;45.630;8.886;2022-10-31T09:00:06;18.35;;;4.93;;
34405;SDS011;20658;45.630;8.886;2022-10-31T09:03:04;22.75;;;4.95;;
34405;SDS011;20658;45.630;8.886;2022-10-31T09:05:43;19.70;;;4.95;;
34405;SDS011;20658;45.630;8.886;2022-10-31T09:08:17;25.02;;;5.45;;
34405;SDS011;20658;45.630;8.886;2022-10-31T09:10:46;23.25;;;5.28;;
34405;SDS011;20658;45.630;8.886;2022-10-31T09:13:58;18.55;;;5.70;;
34405;SDS011;20658;45.630;8.886;2022-10-31T09:16:37;20.42;;;5.95;;
34405;SDS011;20658;45.630;8.886;2022-10-31T09:19:18;25.35;;;6.38;;
34405;SDS011;20658;45.630;8.886;2022-10-31T09:21:52;24.00;;;5.70;;
34405;SDS011;20658;45.630;8.886;2022-10-31T09:24:26;22.40;;;5.70;;
34405;SDS011;20658;45.630;8.886;2022-10-31T09:26:55;22.48;;;5.93;;
34405;SDS011;20658;45.630;8.886;2022-10-31T09:29:31;20.55;;;5.80;;
34405;SDS011;20658;45.630;8.886;2022-10-31T09:32:09;27.83;;;5.82;;
34405;SDS011;20658;45.630;8.886;2022-10-31T09:34:45;22.40;;;5.93;;
34405;SDS011;20658;45.630;8.886;2022-10-31T09:37:19;25.63;;;8.20;;
34405;SDS011;20658;45.630;8.886;2022-10-31T09:39:53;24.42;;;7.50;;
34405;SDS011;20658;45.630;8.886;2022-10-31T09:42:39;34.15;;;8.65;;
34405;SDS011;20658;45.630;8.886;2022-10-31T09:45:28;25.83;;;8.00;;
34405;SDS011;20658;45.630;8.886;2022-10-31T09:48:23;21.38;;;7.22;;
34405;SDS011;20658;45.630;8.886;2022-10-31T09:51:15;26.45;;;7.88;;
34405;SDS011;20658;45.630;8.886;2022-10-31T09:54:19;20.13;;;7.40;;
34405;SDS011;20658;45.630;8.886;2022-10-31T09:56:58;23.10;;;6.85;;
34405;SDS011;20658;45.630;8.886;2022-10-31T09:59:33;23.90;;;7.38;;
34405;SDS011;20658;45.630;8.886;2022-10-31T10:02:13;32.00;;;8.07;;
34405;SDS011;20658;45.630;8.886;2022-10-31T10:04:53;23.33;;;8.25;;
34405;SDS011;20658;45.630;8.886;2022-10-31T10:07:40;22.08;;;8.40;;
34405;SDS011;20658;45.630;8.886;2022-10-31T10:10:41;26.52;;;9.40;;
34405;SDS011;20658;45.630;8.886;2022-10-31T10:13:50;34.67;;;9.30;;
34405;SDS011;20658;45.630;8.886;2022-10-31T10:16:40;26.08;;;9.77;;
34405;SDS011;20658;45.630;8.886;2022-10-31T10:19:40;26.27;;;8.93;;
34405;SDS011;20658;45.630;8.886;2022-10-31T10:22:22;25.30;;;8.93;;
34405;SDS011;20658;45.630;8.886;2022-10-31T10:25:12;20.90;;;8.52;;
34405;SDS011;20658;45.630;8.886;2022-10-31T10:27:50;28.48;;;9.98;;
34405;SDS011;20658;45.630;8.886;2022-10-31T10:30:35;27.48;;;9.20;;
34405;SDS011;20658;45.630;8.886;2022-10-31T10:33:16;27.33;;;9.63;;
34405;SDS011;20658;45.630;8.886;2022-10-31T10:35:50;27.23;;;9.85;;
34405;SDS011;20658;45.630;8.886;2022-10-31T10:38:23;26.85;;;9.20;;
34405;SDS011;20658;45.630;8.886;2022-10-31T10:41:04;25.00;;;10.02;;
34405;SDS011;20658;45.630;8.886;2022-10-31T10:43:44;26.80;;;10.32;;
34405;SDS011;20658;45.630;8.886;2022-10-31T10:46:18;25.92;;;10.05;;
34405;SDS011;20658;45.630;8.886;2022-10-31T10:49:16;28.50;;;9.80;;
34405;SDS011;20658;45.630;8.886;2022-10-31T10:51:53;26.95;;;8.95;;
34405;SDS011;20658;45.630;8.886;2022-10-31T10:54:39;24.85;;;8.38;;
34405;SDS011;20658;45.630;8.886;2022-10-31T10:57:36;31.08;;;10.23;;
34405;SDS011;20658;45.630;8.886;2022-10-31T11:00:22;26.80;;;8.45;;
34405;SDS011;20658;45.630;8.886;2022-10-31T11:02:57;22.83;;;7.82;;
34405;SDS011;20658;45.630;8.886;2022-10-31T11:05:33;19.10;;;7.47;;
34405;SDS011;20658;45.630;8.886;2022-10-31T11:08:06;32.40;;;8.75;;
34405;SDS011;20658;45.630;8.886;2022-10-31T11:10:40;27.70;;;9.77;;
34405;SDS011;20658;45.630;8.886;2022-10-31T11:13:20;30.95;;;8.98;;
34405;SDS011;20658;45.630;8.886;2022-10-31T11:15:57;20.92;;;9.48;;
34405;SDS011;20658;45.630;8.886;2022-10-31T11:18:34;29.95;;;10.65;;
34405;SDS011;20658;45.630;8.886;2022-10-31T11:21:19;26.98;;;10.50;;
34405;SDS011;20658;45.630;8.886;2022-10-31T11:23:51;24.45;;;9.45;;
34405;SDS011;20658;45.630;8.886;2022-10-31T11:26:36;24.13;;;9.05;;
34405;SDS011;20658;45.630;8.886;2022-10-31T11:29:10;24.90;;;10.20;;
34405;SDS011;20658;45.630;8.886;2022-10-31T11:31:52;24.63;;;9.65;;
34405;SDS011;20658;45.630;8.886;2022-10-31T11:34:29;24.73;;;9.20;;
34405;SDS011;20658;45.630;8.886;2022-10-31T11:37:08;31.20;;;10.15;;
34405;SDS011;20658;45.630;8.886;2022-10-31T11:39:48;25.50;;;9.52;;
34405;SDS011;20658;45.630;8.886;2022-10-31T11:42:26;26.58;;;8.35;;
34405;SDS011;20658;45.630;8.886;2022-10-31T11:45:04;29.48;;;9.77;;
34405;SDS011;20658;45.630;8.886;2022-10-31T11:47:48;27.00;;;9.68;;
34405;SDS011;20658;45.630;8.886;2022-10-31T11:50:31;27.92;;;10.13;;
34405;SDS011;20658;45.630;8.886;2022-10-31T11:53:11;25.80;;;9.55;;
34405;SDS011;20658;45.630;8.886;2022-10-31T11:56:00;25.17;;;8.95;;
34405;SDS011;20658;45.630;8.886;2022-10-31T11:58:37;28.98;;;11.43;;
34405;SDS011;20658;45.630;8.886;2022-10-31T12:01:21;27.00;;;9.50;;
34405;SDS011;20658;45.630;8.886;2022-10-31T12:04:00;25.15;;;9.10;;
34405;SDS011;20658;45.630;8.886;2022-10-31T12:06:41;27.13;;;9.35;;
34405;SDS011;20658;45.630;8.886;2022-10-31T12:09:20;27.08;;;9.02;;
34405;SDS011;20658;45.630;8.886;2022-10-31T12:12:18;21.75;;;9.13;;
34405;SDS011;20658;45.630;8.886;2022-10-31T12:15:18;25.23;;;10.20;;
34405;SDS011;20658;45.630;8.886;2022-10-31T12:21:14;23.45;;;8.45;;
34405;SDS011;20658;45.630;8.886;2022-10-31T12:24:09;24.55;;;8.23;;
34405;SDS011;20658;45.630;8.886;2022-10-31T12:26:59;20.67;;;8.80;;
34405;SDS011;20658;45.630;8.886;2022-10-31T12:29:59;24.98;;;8.63;;
34405;SDS011;20658;45.630;8.886;2022-10-31T12:33:00;25.85;;;8.60;;
34405;SDS011;20658;45.630;8.886;2022-10-31T12:35:55;26.35;;;9.23;;
34405;SDS011;20658;45.630;8.886;2022-10-31T12:38:44;22.35;;;9.60;;
34405;SDS011;20658;45.630;8.886;2022-10-31T12:41:36;25.88;;;8.23;;
34405;SDS011;20658;45.630;8.886;2022-10-31T12:44:33;27.90;;;10.23;;
34405;SDS011;20658;45.630;8.886;2022-10-31T12:47:42;31.50;;;9.57;;
34405;SDS011;20658;45.630;8.886;2022-10-31T12:50:34;25.00;;;8.63;;
34405;SDS011;20658;45.630;8.886;2022-10-31T12:53:35;24.55;;;8.40;;
34405;SDS011;20658;45.630;8.886;2022-10-31T12:56:27;27.73;;;9.15;;
34405;SDS011;20658;45.630;8.886;2022-10-31T12:59:14;24.23;;;8.70;;
34405;SDS011;20658;45.630;8.886;2022-10-31T13:01:55;24.48;;;9.50;;
34405;SDS011;20658;45.630;8.886;2022-10-31T13:04:38;26.27;;;10.18;;
34405;SDS011;20658;45.630;8.886;2022-10-31T13:07:17;19.20;;;8.27;;
34405;SDS011;20658;45.630;8.886;2022-10-31T13:10:00;20.88;;;9.13;;
34405;SDS011;20658;45.630;8.886;2022-10-31T13:12:38;22.00;;;7.65;;
34405;SDS011;20658;45.630;8.886;2022-10-31T13:15:14;27.98;;;7.97;;
34405;SDS011;20658;45.630;8.886;2022-10-31T13:17:54;28.33;;;8.55;;
34405;SDS011;20658;45.630;8.886;2022-10-31T13:20:31;20.55;;;7.75;;
34405;SDS011;20658;45.630;8.886;2022-10-31T13:26:03;20.05;;;8.07;;
34405;SDS011;20658;45.630;8.886;2022-10-31T13:28:44;25.08;;;8.82;;
34405;SDS011;20658;45.630;8.886;2022-10-31T13:31:20;23.08;;;8.35;;
34405;SDS011;20658;45.630;8.886;2022-10-31T13:33:55;27.63;;;7.80;;
34405;SDS011;20658;45.630;8.886;2022-10-31T13:36:34;21.50;;;7.07;;
34405;SDS011;20658;45.630;8.886;2022-10-31T13:39:15;25.45;;;8.63;;
34405;SDS011;20658;45.630;8.886;2022-10-31T13:42:00;27.10;;;8.05;;
34405;SDS011;20658;45.630;8.886;2022-10-31T13:44:40;24.95;;;8.55;;
34405;SDS011;20658;45.630;8.886;2022-10-31T13:47:20;23.00;;;9.30;;
34405;SDS011;20658;45.630;8.886;2022-10-31T13:50:04;22.38;;;9.35;;
34405;SDS011;20658;45.630;8.886;2022-10-31T13:52:52;26.80;;;8.98;;
34405;SDS011;20658;45.630;8.886;2022-10-31T13:55:44;26.80;;;8.80;;
34405;SDS011;20658;45.630;8.886;2022-10-31T13:58:21;23.35;;;8.25;;
34405;SDS011;20658;45.630;8.886;2022-10-31T14:00:58;23.05;;;8.93;;
34405;SDS011;20658;45.630;8.886;2022-10-31T14:03:45;21.80;;;7.57;;
34405;SDS011;20658;45.630;8.886;2022-10-31T14:06:40;26.90;;;8.93;;
34405;SDS011;20658;45.630;8.886;2022-10-31T14:09:30;27.35;;;8.13;;
34405;SDS011;20658;45.630;8.886;2022-10-31T14:12:06;29.45;;;7.55;;
34405;SDS011;20658;45.630;8.886;2022-10-31T14:14:45;21.17;;;7.15;;
34405;SDS011;20658;45.630;8.886;2022-10-31T14:17:22;28.45;;;7.30;;
34405;SDS011;20658;45.630;8.886;2022-10-31T14:20:19;21.50;;;6.88;;
34405;SDS011;20658;45.630;8.886;2022-10-31T14:26:16;26.75;;;7.70;;
34405;SDS011;20658;45.630;8.886;2022-10-31T14:29:20;21.42;;;7.63;;
34405;SDS011;20658;45.630;8.886;2022-10-31T14:32:03;20.58;;;6.43;;
34405;SDS011;20658;45.630;8.886;2022-10-31T14:34:42;24.17;;;5.93;;
34405;SDS011;20658;45.630;8.886;2022-10-31T14:37:29;20.83;;;6.03;;
34405;SDS011;20658;45.630;8.886;2022-10-31T14:40:29;20.45;;;6.53;;
34405;SDS011;20658;45.630;8.886;2022-10-31T14:46:54;27.77;;;7.28;;
34405;SDS011;20658;45.630;8.886;2022-10-31T14:49:43;17.30;;;6.70;;
34405;SDS011;20658;45.630;8.886;2022-10-31T14:52:39;22.38;;;6.80;;
34405;SDS011;20658;45.630;8.886;2022-10-31T14:55:19;27.75;;;6.85;;
34405;SDS011;20658;45.630;8.886;2022-10-31T14:57:57;22.67;;;7.57;;
34405;SDS011;20658;45.630;8.886;2022-10-31T15:00:36;23.67;;;6.93;;
34405;SDS011;20658;45.630;8.886;2022-10-31T15:03:11;18.35;;;6.53;;
34405;SDS011;20658;45.630;8.886;2022-10-31T15:05:45;20.75;;;6.65;;
34405;SDS011;20658;45.630;8.886;2022-10-31T15:08:26;21.75;;;6.43;;
34405;SDS011;20658;45.630;8.886;2022-10-31T15:11:11;21.63;;;6.05;;
34405;SDS011;20658;45.630;8.886;2022-10-31T15:13:50;17.52;;;5.95;;
34405;SDS011;20658;45.630;8.886;2022-10-31T15:16:27;26.92;;;6.18;;
34405;SDS011;20658;45.630;8.886;2022-10-31T15:19:04;22.33;;;5.88;;
34405;SDS011;20658;45.630;8.886;2022-10-31T15:21:42;22.75;;;6.75;;
34405;SDS011;20658;45.630;8.886;2022-10-31T15:24:18;23.50;;;7.70;;
34405;SDS011;20658;45.630;8.886;2022-10-31T15:26:52;21.17;;;6.82;;
34405;SDS011;20658;45.630;8.886;2022-10-31T15:29:27;21.55;;;6.68;;
34405;SDS011;20658;45.630;8.886;2022-10-31T15:32:15;23.20;;;6.15;;
34405;SDS011;20658;45.630;8.886;2022-10-31T15:34:54;14.45;;;5.85;;
34405;SDS011;20658;45.630;8.886;2022-10-31T15:37:28;18.77;;;6.10;;
34405;SDS011;20658;45.630;8.886;2022-10-31T15:40:06;19.85;;;5.60;;
34405;SDS011;20658;45.630;8.886;2022-10-31T15:42:47;19.38;;;5.60;;
34405;SDS011;20658;45.630;8.886;2022-10-31T15:45:25;19.17;;;5.15;;
34405;SDS011;20658;45.630;8.886;2022-10-31T15:48:01;18.13;;;6.25;;
34405;SDS011;20658;45.630;8.886;2022-10-31T15:50:49;19.48;;;6.35;;
34405;SDS011;20658;45.630;8.886;2022-10-31T15:53:26;18.40;;;5.63;;
34405;SDS011;20658;45.630;8.886;2022-10-31T15:56:04;25.27;;;6.00;;
34405;SDS011;20658;45.630;8.886;2022-10-31T15:58:42;19.45;;;6.15;;
34405;SDS011;20658;45.630;8.886;2022-10-31T16:01:22;19.95;;;6.05;;
34405;SDS011;20658;45.630;8.886;2022-10-31T16:04:01;20.53;;;5.33;;
34405;SDS011;20658;45.630;8.886;2022-10-31T16:06:37;17.25;;;5.60;;
34405;SDS011;20658;45.630;8.886;2022-10-31T16:09:18;22.08;;;6.75;;
34405;SDS011;20658;45.630;8.886;2022-10-31T16:11:55;20.95;;;6.03;;
34405;SDS011;20658;45.630;8.886;2022-10-31T16:14:30;25.42;;;6.82;;
34405;SDS011;20658;45.630;8.886;2022-10-31T16:17:11;22.35;;;6.70;;
34405;SDS011;20658;45.630;8.886;2022-10-31T16:19:52;25.10;;;7.38;;